createdAt,value
2019-05-14T00:00:21.491Z,50.60
2019-05-14T00:01:53.387Z,50.80
2019-05-14T00:03:25.522Z,50.80
2019-05-14T00:04:57.808Z,50.90
2019-05-14T00:06:31.120Z,51.10
2019-05-14T00:08:03.524Z,51.10
2019-05-14T00:09:35.678Z,51.50
2019-05-14T00:11:07.810Z,51.50
2019-05-14T00:12:41.883Z,51.40
2019-05-14T00:14:14.056Z,51.50
2019-05-14T00:15:46.203Z,51.70
2019-05-14T00:17:18.464Z,51.70
2019-05-14T00:18:51.155Z,52.00
2019-05-14T00:20:23.677Z,52.00
2019-05-14T00:21:55.787Z,52.00
2019-05-14T00:23:27.900Z,52.00
2019-05-14T00:25:01.126Z,51.90
2019-05-14T00:26:33.687Z,52.30
2019-05-14T00:28:05.850Z,52.90
2019-05-14T00:29:37.986Z,52.40
2019-05-14T00:31:12.112Z,52.50
2019-05-14T00:32:44.441Z,52.50
2019-05-14T00:34:16.694Z,52.60
2019-05-14T00:35:51.282Z,52.20
2019-05-14T00:37:23.084Z,52.40
2019-05-14T00:38:55.181Z,52.20
2019-05-14T00:40:27.446Z,52.70
2019-05-14T00:42:01.643Z,52.60
2019-05-14T00:43:33.684Z,52.50
2019-05-14T00:45:06.833Z,52.60
2019-05-14T00:46:40.939Z,52.40
2019-05-14T00:48:13.300Z,53.20
2019-05-14T00:49:47.411Z,52.80
2019-05-14T00:51:21.516Z,53.00
2019-05-14T00:52:53.667Z,53.00
2019-05-14T00:54:25.903Z,53.00
2019-05-14T00:55:58.712Z,53.30
2019-05-14T00:57:31.600Z,53.40
2019-05-14T00:59:03.981Z,53.30
2019-05-14T01:00:36.072Z,53.70
2019-05-14T01:02:08.258Z,53.70
2019-05-14T01:03:41.482Z,54.00
2019-05-14T01:05:13.980Z,54.20
2019-05-14T01:06:46.234Z,54.20
2019-05-14T01:08:18.481Z,54.40
2019-05-14T01:09:52.558Z,54.40
2019-05-14T01:11:24.700Z,54.50
2019-05-14T01:12:56.964Z,55.00
2019-05-14T01:14:29.144Z,55.20
2019-05-14T01:16:01.691Z,55.10
2019-05-14T01:17:34.105Z,55.50
2019-05-14T01:19:06.199Z,55.40
2019-05-14T01:20:38.436Z,55.70
2019-05-14T01:22:12.538Z,56.20
2019-05-14T01:23:44.852Z,55.70
2019-05-14T01:25:16.990Z,56.10
2019-05-14T01:26:49.260Z,56.40
2019-05-14T01:28:21.767Z,56.50
2019-05-14T01:29:54.076Z,56.60
2019-05-14T01:31:26.264Z,57.00
2019-05-14T01:32:58.556Z,57.10
2019-05-14T01:34:32.383Z,57.20
2019-05-14T01:36:04.877Z,57.30
2019-05-14T01:37:37.117Z,57.40
2019-05-14T01:39:11.875Z,58.10
2019-05-14T01:40:43.580Z,57.40
2019-05-14T01:42:15.849Z,57.70
2019-05-14T01:43:48.007Z,57.50
2019-05-14T01:45:25.065Z,58.00
2019-05-14T01:46:54.264Z,58.50
2019-05-14T01:48:26.422Z,58.50
2019-05-14T01:49:58.507Z,58.80
2019-05-14T01:51:31.555Z,58.50
2019-05-14T01:53:04.265Z,59.10
2019-05-14T01:54:36.507Z,58.90
2019-05-14T01:56:08.629Z,59.10
2019-05-14T01:57:42.471Z,59.20
2019-05-14T01:59:14.958Z,59.60
2019-05-14T02:00:47.235Z,58.80
2019-05-14T02:02:21.840Z,59.60
2019-05-14T02:03:53.540Z,58.90
2019-05-14T02:05:25.834Z,59.00
2019-05-14T02:06:58.010Z,58.70
2019-05-14T02:08:32.263Z,58.70
2019-05-14T02:10:06.374Z,59.40
2019-05-14T02:11:38.496Z,59.10
2019-05-14T02:13:12.285Z,58.60
2019-05-14T02:14:44.808Z,58.60
2019-05-14T02:16:17.074Z,58.80
2019-05-14T02:17:51.715Z,59.50
2019-05-14T02:19:23.222Z,59.60
2019-05-14T02:20:55.464Z,59.70
2019-05-14T02:22:27.615Z,59.60
2019-05-14T02:24:01.841Z,59.80
2019-05-14T02:25:33.857Z,59.80
2019-05-14T02:27:06.012Z,59.60
2019-05-14T02:28:38.152Z,59.80
2019-05-14T02:30:10.585Z,59.50
2019-05-14T02:31:42.797Z,59.60
2019-05-14T02:33:19.174Z,59.50
2019-05-14T02:34:50.944Z,59.20
2019-05-14T02:36:23.234Z,59.20
2019-05-14T02:37:55.377Z,59.30
2019-05-14T02:39:29.244Z,59.20
2019-05-14T02:41:02.442Z,58.80
2019-05-14T02:42:34.670Z,59.40
2019-05-14T02:44:09.849Z,59.00
2019-05-14T02:46:00.653Z,59.00
2019-05-14T02:47:19.203Z,59.20
2019-05-14T02:48:50.047Z,59.40
2019-05-14T02:50:22.322Z,59.40
2019-05-14T02:51:54.521Z,59.40
2019-05-14T02:53:29.418Z,59.10
2019-05-14T02:55:00.793Z,59.20
2019-05-14T02:56:32.930Z,59.70
2019-05-14T02:58:05.055Z,59.60
2019-05-14T02:59:39.319Z,59.40
2019-05-14T03:01:11.329Z,59.80
2019-05-14T03:02:43.573Z,60.30
2019-05-14T03:04:16.105Z,60.40
2019-05-14T03:05:49.528Z,60.30
2019-05-14T03:07:22.526Z,60.00
2019-05-14T03:08:54.756Z,60.80
2019-05-14T03:10:30.261Z,60.90
2019-05-14T03:12:01.151Z,61.00
2019-05-14T03:13:33.417Z,61.00
2019-05-14T03:15:09.286Z,61.30
2019-05-14T03:16:40.789Z,61.50
2019-05-14T03:18:13.420Z,60.90
2019-05-14T03:19:45.548Z,61.30
2019-05-14T03:21:19.830Z,61.30
2019-05-14T03:23:03.140Z,61.50
2019-05-14T03:24:28.653Z,61.70
2019-05-14T03:26:00.707Z,61.30
2019-05-14T03:27:33.269Z,61.00
2019-05-14T03:29:05.518Z,61.30
2019-05-14T03:30:42.495Z,62.10
2019-05-14T03:32:13.588Z,61.90
2019-05-14T03:33:51.795Z,62.30
2019-05-14T03:35:24.146Z,62.40
2019-05-14T03:36:54.321Z,62.40
2019-05-14T03:38:29.575Z,62.60
2019-05-14T03:40:00.814Z,61.90
2019-05-14T03:41:33.262Z,62.10
2019-05-14T03:43:05.400Z,62.20
2019-05-14T03:44:39.969Z,61.90
2019-05-14T03:46:11.854Z,62.20
2019-05-14T03:47:44.115Z,62.10
2019-05-14T03:49:19.649Z,61.90
2019-05-14T03:50:50.528Z,62.50
2019-05-14T03:52:22.622Z,62.60
2019-05-14T03:54:01.876Z,63.10
2019-05-14T03:55:29.397Z,62.60
2019-05-14T03:57:01.868Z,62.10
2019-05-14T03:58:33.978Z,62.60
2019-05-14T04:00:09.965Z,62.70
2019-05-14T04:01:41.083Z,62.40
2019-05-14T04:03:13.253Z,62.00
2019-05-14T04:04:45.805Z,62.60
2019-05-14T04:06:19.106Z,63.10
2019-05-14T04:07:52.006Z,63.30
2019-05-14T04:09:29.194Z,63.10
2019-05-14T04:11:01.097Z,63.30
2019-05-14T04:12:34.856Z,63.00
2019-05-14T04:14:10.564Z,63.30
2019-05-14T04:15:44.501Z,63.00
2019-05-14T04:17:33.861Z,63.30
2019-05-14T04:19:03.806Z,63.20
2019-05-14T04:20:39.227Z,62.90
2019-05-14T04:22:13.129Z,62.60
2019-05-14T04:23:50.785Z,62.40
2019-05-14T04:25:21.808Z,62.80
2019-05-14T04:27:03.416Z,63.20
2019-05-14T04:28:32.285Z,63.20
2019-05-14T04:30:04.705Z,63.60
2019-05-14T04:31:39.173Z,63.20
2019-05-14T04:33:11.802Z,63.10
2019-05-14T04:34:44.116Z,63.40
2019-05-14T04:36:19.208Z,62.90
2019-05-14T04:37:50.679Z,63.20
2019-05-14T04:39:22.927Z,63.10
2019-05-14T04:40:55.218Z,63.60
2019-05-14T04:42:29.582Z,63.50
2019-05-14T04:44:01.536Z,64.70
2019-05-14T04:45:33.772Z,63.90
2019-05-14T04:47:25.202Z,64.10
2019-05-14T04:48:43.260Z,64.10
2019-05-14T04:50:14.479Z,64.40
2019-05-14T04:51:49.970Z,64.70
2019-05-14T04:53:20.885Z,64.70
2019-05-14T04:54:53.057Z,64.50
2019-05-14T04:56:25.168Z,64.30
2019-05-14T04:57:59.207Z,64.20
2019-05-14T04:59:31.600Z,63.70
2019-05-14T05:01:03.906Z,63.80
2019-05-14T05:02:39.437Z,64.70
2019-05-14T05:04:10.113Z,63.90
2019-05-14T05:05:42.242Z,64.60
2019-05-14T05:07:14.329Z,63.90
2019-05-14T05:08:49.421Z,63.80
2019-05-14T05:10:20.617Z,64.00
2019-05-14T05:11:52.940Z,64.80
2019-05-14T05:13:25.191Z,64.10
2019-05-14T05:14:58.667Z,63.90
2019-05-14T05:16:31.045Z,63.90
2019-05-14T05:18:03.432Z,63.90
2019-05-14T05:19:35.655Z,64.80
2019-05-14T05:21:08.675Z,64.00
2019-05-14T05:22:41.208Z,64.50
2019-05-14T05:24:13.459Z,63.90
2019-05-14T05:25:45.568Z,63.80
2019-05-14T05:27:18.478Z,64.40
2019-05-14T05:29:02.284Z,63.90
2019-05-14T05:30:25.175Z,63.80
2019-05-14T05:31:59.379Z,63.70
2019-05-14T05:33:31.528Z,64.30
2019-05-14T05:35:03.786Z,64.20
2019-05-14T05:36:37.903Z,64.10
2019-05-14T05:38:10.069Z,64.10
2019-05-14T05:39:42.165Z,64.70
2019-05-14T05:41:14.418Z,64.50
2019-05-14T05:42:48.840Z,65.30
2019-05-14T05:44:20.870Z,64.80
2019-05-14T05:45:52.982Z,65.50
2019-05-14T05:47:25.320Z,64.70
2019-05-14T05:48:58.695Z,65.00
2019-05-14T05:50:31.067Z,64.40
2019-05-14T05:52:03.349Z,66.20
2019-05-14T05:53:35.607Z,65.20
2019-05-14T05:55:08.904Z,65.20
2019-05-14T05:56:41.449Z,64.50
2019-05-14T05:58:13.688Z,64.30
2019-05-14T05:59:48.232Z,64.80
2019-05-14T06:01:19.969Z,64.40
2019-05-14T06:02:52.444Z,64.20
2019-05-14T06:04:24.659Z,64.00
2019-05-14T06:05:59.127Z,63.80
2019-05-14T06:07:30.955Z,63.10
2019-05-14T06:09:04.802Z,63.60
2019-05-14T06:10:39.714Z,62.70
2019-05-14T06:12:10.946Z,62.20
2019-05-14T06:13:43.192Z,62.10
2019-05-14T06:15:15.394Z,62.10
2019-05-14T06:16:48.904Z,62.30
2019-05-14T06:18:22.156Z,62.80
2019-05-14T06:19:54.679Z,62.60
2019-05-14T06:21:29.018Z,61.90
2019-05-14T06:23:00.986Z,61.90
2019-05-14T06:24:33.129Z,61.70
2019-05-14T06:26:05.247Z,61.80
2019-05-14T06:27:37.992Z,61.70
2019-05-14T06:29:10.691Z,62.10
2019-05-14T06:30:42.833Z,62.30
2019-05-14T06:32:15.094Z,61.50
2019-05-14T06:33:48.636Z,61.20
2019-05-14T06:35:21.890Z,60.60
2019-05-14T06:36:54.175Z,59.70
2019-05-14T06:38:29.175Z,59.10
2019-05-14T06:40:00.693Z,58.10
2019-05-14T06:41:32.849Z,56.60
2019-05-14T06:43:04.956Z,55.80
2019-05-14T06:44:38.600Z,54.30
2019-05-14T06:46:11.144Z,52.90
2019-05-14T06:47:43.262Z,51.20
2019-05-14T06:49:15.557Z,50.40
2019-05-14T06:50:50.220Z,50.00
2019-05-14T06:52:21.652Z,49.60
2019-05-14T06:53:53.811Z,48.10
2019-05-14T06:55:28.311Z,47.90
2019-05-14T06:57:00.090Z,47.00
2019-05-14T06:58:32.352Z,46.90
2019-05-14T07:00:04.720Z,46.60
2019-05-14T07:01:44.408Z,48.70
2019-05-14T07:03:18.050Z,49.10
2019-05-14T07:04:50.255Z,49.30
2019-05-14T07:06:22.345Z,50.20
2019-05-14T07:07:54.627Z,48.70
2019-05-14T07:09:28.768Z,48.40
2019-05-14T07:11:00.919Z,46.50
2019-05-14T07:12:33.006Z,46.60
2019-05-14T07:14:08.183Z,46.40
2019-05-14T07:15:39.220Z,45.20
2019-05-14T07:17:11.479Z,45.40
2019-05-14T07:18:48.805Z,42.00
2019-05-14T07:20:18.892Z,42.70
2019-05-14T07:21:51.192Z,42.80
2019-05-14T07:23:23.313Z,42.30
2019-05-14T07:24:55.561Z,40.80
2019-05-14T07:26:29.490Z,41.10
2019-05-14T07:28:02.158Z,41.80
2019-05-14T07:29:34.332Z,39.10
2019-05-14T07:31:09.479Z,39.60
2019-05-14T07:32:40.609Z,40.30
2019-05-14T07:34:12.865Z,40.20
2019-05-14T07:35:45.126Z,40.00
2019-05-14T07:37:18.067Z,37.90
2019-05-14T07:38:50.396Z,38.20
2019-05-14T07:40:22.518Z,38.40
2019-05-14T07:41:54.678Z,36.60
2019-05-14T07:43:28.719Z,36.40
2019-05-14T07:45:00.856Z,33.70
2019-05-14T07:46:34.260Z,34.90
2019-05-14T07:48:08.745Z,35.10
2019-05-14T07:49:40.552Z,35.90
2019-05-14T07:51:12.845Z,36.10
2019-05-14T07:52:45.806Z,36.90
2019-05-14T07:54:19.478Z,34.00
2019-05-14T07:55:51.972Z,35.90
2019-05-14T07:57:24.107Z,34.60
2019-05-14T07:58:58.485Z,34.60
2019-05-14T08:00:30.486Z,35.90
2019-05-14T08:02:02.578Z,36.90
2019-05-14T08:03:34.670Z,35.60
2019-05-14T08:05:08.730Z,34.30
2019-05-14T08:06:40.985Z,35.10
2019-05-14T08:08:13.191Z,35.10
2019-05-14T08:09:45.338Z,32.50
2019-05-14T08:11:19.103Z,34.80
2019-05-14T08:12:51.736Z,33.20
2019-05-14T08:14:23.944Z,34.40
2019-05-14T08:15:58.161Z,35.60
2019-05-14T08:17:30.076Z,32.90
2019-05-14T08:19:04.985Z,34.10
2019-05-14T08:20:38.003Z,35.10
2019-05-14T08:22:10.300Z,34.10
2019-05-14T08:23:42.464Z,34.20
2019-05-14T08:25:15.300Z,35.00
2019-05-14T08:26:48.705Z,35.20
2019-05-14T08:28:21.294Z,35.80
2019-05-14T08:29:53.716Z,34.00
2019-05-14T08:31:25.997Z,32.80
2019-05-14T08:32:58.384Z,32.80
2019-05-14T08:34:32.398Z,35.60
2019-05-14T08:36:04.811Z,32.30
2019-05-14T08:37:38.686Z,33.80
2019-05-14T08:39:11.070Z,35.50
2019-05-14T08:40:44.409Z,35.10
2019-05-14T08:42:18.553Z,35.70
2019-05-14T08:43:50.763Z,36.60
2019-05-14T08:45:23.057Z,36.70
2019-05-14T08:46:55.247Z,35.30
2019-05-14T08:48:29.527Z,36.10
2019-05-14T08:50:01.955Z,35.00
2019-05-14T08:51:34.178Z,35.90
2019-05-14T08:53:08.883Z,35.50
2019-05-14T08:54:40.308Z,34.10
2019-05-14T08:56:12.448Z,33.60
2019-05-14T08:57:44.794Z,35.00
2019-05-14T08:59:19.422Z,35.90
2019-05-14T09:00:51.406Z,36.70
2019-05-14T09:02:23.691Z,35.60
2019-05-14T09:03:55.821Z,36.60
2019-05-14T09:05:28.684Z,36.20
2019-05-14T09:07:01.175Z,36.40
2019-05-14T09:08:33.360Z,36.30
2019-05-14T09:10:08.478Z,36.40
2019-05-14T09:11:45.240Z,37.50
2019-05-14T09:13:14.101Z,36.60
2019-05-14T09:14:48.363Z,34.60
2019-05-14T09:16:38.066Z,33.50
2019-05-14T09:17:54.371Z,35.30
2019-05-14T09:19:28.760Z,34.80
2019-05-14T09:21:00.672Z,35.20
2019-05-14T09:22:32.960Z,34.90
2019-05-14T09:24:05.226Z,33.30
2019-05-14T09:25:45.459Z,35.10
2019-05-14T09:27:11.513Z,36.10
2019-05-14T09:28:43.622Z,37.30
2019-05-14T09:30:18.306Z,34.40
2019-05-14T09:31:49.915Z,35.10
2019-05-14T09:33:24.319Z,34.90
2019-05-14T09:34:58.797Z,33.30
2019-05-14T09:36:30.267Z,36.00
2019-05-14T09:38:02.438Z,35.90
2019-05-14T09:39:34.584Z,36.80
2019-05-14T09:41:12.199Z,36.70
2019-05-14T09:42:41.008Z,34.70
2019-05-14T09:44:13.276Z,34.30
2019-05-14T09:45:45.392Z,34.10
2019-05-14T09:47:18.923Z,33.10
2019-05-14T09:48:51.532Z,33.70
2019-05-14T09:50:23.970Z,31.60
2019-05-14T09:51:58.194Z,31.00
2019-05-14T09:53:30.236Z,30.10
2019-05-14T09:55:02.831Z,31.00
2019-05-14T09:56:35.134Z,32.40
2019-05-14T09:58:08.181Z,33.60
2019-05-14T09:59:40.675Z,32.80
2019-05-14T10:01:12.899Z,29.30
2019-05-14T10:02:49.281Z,31.90
2019-05-14T10:04:20.949Z,32.00
2019-05-14T10:05:53.230Z,32.00
2019-05-14T10:07:28.562Z,32.40
2019-05-14T10:08:59.629Z,31.10
2019-05-14T10:10:31.911Z,32.20
2019-05-14T10:12:04.016Z,33.90
2019-05-14T10:13:36.168Z,32.90
2019-05-14T10:15:08.974Z,33.20
2019-05-14T10:16:41.290Z,33.50
2019-05-14T10:18:13.549Z,33.60
2019-05-14T10:19:45.843Z,34.10
2019-05-14T10:21:19.159Z,34.20
2019-05-14T10:22:51.636Z,33.30
2019-05-14T10:24:25.684Z,34.10
2019-05-14T10:25:58.206Z,35.00
2019-05-14T10:27:30.454Z,32.40
2019-05-14T10:29:02.823Z,34.00
2019-05-14T10:30:35.068Z,34.00
2019-05-14T10:32:08.757Z,32.30
2019-05-14T10:33:41.269Z,32.00
2019-05-14T10:35:13.885Z,33.60
2019-05-14T10:36:46.198Z,33.10
2019-05-14T10:38:19.127Z,32.20
2019-05-14T10:39:51.559Z,34.30
2019-05-14T10:41:23.872Z,35.00
2019-05-14T10:42:56.113Z,32.00
2019-05-14T10:44:29.257Z,31.50
2019-05-14T10:46:01.749Z,31.60
2019-05-14T10:47:33.999Z,32.20
2019-05-14T10:49:19.418Z,30.70
2019-05-14T10:50:55.737Z,30.80
2019-05-14T10:52:14.573Z,30.20
2019-05-14T10:53:48.954Z,28.90
2019-05-14T10:55:20.794Z,27.70
2019-05-14T10:56:53.063Z,29.10
2019-05-14T10:58:25.373Z,28.60
2019-05-14T10:59:59.164Z,29.80
2019-05-14T11:01:31.630Z,29.90
2019-05-14T11:03:03.890Z,30.30
2019-05-14T11:04:36.041Z,30.00
2019-05-14T11:06:11.409Z,30.70
2019-05-14T11:07:42.458Z,31.20
2019-05-14T11:09:14.716Z,30.00
2019-05-14T11:10:49.480Z,31.20
2019-05-14T11:12:20.994Z,31.00
2019-05-14T11:13:55.103Z,32.20
2019-05-14T11:15:28.521Z,30.70
2019-05-14T11:17:00.738Z,29.70
2019-05-14T11:18:32.855Z,31.20
2019-05-14T11:20:05.387Z,31.40
2019-05-14T11:21:39.174Z,31.00
2019-05-14T11:23:11.676Z,32.30
2019-05-14T11:24:43.888Z,30.20
2019-05-14T11:26:18.327Z,31.70
2019-05-14T11:27:50.213Z,32.00
2019-05-14T11:29:22.490Z,32.60
2019-05-14T11:30:54.629Z,32.60
2019-05-14T11:32:29.065Z,32.20
2019-05-14T11:34:00.804Z,32.00
2019-05-14T11:35:32.940Z,32.10
2019-05-14T11:37:05.210Z,32.70
2019-05-14T11:38:39.164Z,32.80
2019-05-14T11:40:11.841Z,32.50
2019-05-14T11:41:43.991Z,33.30
2019-05-14T11:43:16.234Z,33.30
2019-05-14T11:44:48.872Z,32.20
2019-05-14T11:46:39.390Z,33.60
2019-05-14T11:47:58.362Z,31.40
2019-05-14T11:49:30.792Z,33.10
2019-05-14T11:51:02.998Z,32.20
2019-05-14T11:52:35.358Z,33.30
2019-05-14T11:54:09.485Z,33.50
2019-05-14T11:55:41.662Z,34.90
2019-05-14T11:57:13.865Z,34.50
2019-05-14T11:58:45.983Z,35.60
2019-05-14T12:00:19.543Z,34.80
2019-05-14T12:01:54.984Z,34.60
2019-05-14T12:03:28.577Z,33.90
2019-05-14T12:05:00.535Z,34.90
2019-05-14T12:06:32.796Z,34.40
2019-05-14T12:08:04.908Z,35.50
2019-05-14T12:09:39.058Z,33.50
2019-05-14T12:11:11.198Z,34.40
2019-05-14T12:12:43.507Z,35.50
2019-05-14T12:14:19.086Z,35.10
2019-05-14T12:15:51.398Z,36.00
2019-05-14T12:17:23.768Z,35.10
2019-05-14T12:18:56.019Z,35.40
2019-05-14T12:20:29.636Z,35.70
2019-05-14T12:22:07.358Z,35.10
2019-05-14T12:23:36.264Z,35.50
2019-05-14T12:25:08.530Z,34.10
2019-05-14T12:26:40.789Z,34.50
2019-05-14T12:28:13.807Z,34.80
2019-05-14T12:29:49.487Z,33.50
2019-05-14T12:31:20.386Z,35.50
2019-05-14T12:32:52.513Z,35.10
2019-05-14T12:34:24.795Z,35.40
2019-05-14T12:36:00.243Z,35.00
2019-05-14T12:37:31.155Z,34.80
2019-05-14T12:39:06.368Z,35.90
2019-05-14T12:40:38.469Z,35.40
2019-05-14T12:42:11.456Z,36.10
2019-05-14T12:43:44.082Z,36.60
2019-05-14T12:45:19.052Z,35.30
2019-05-14T12:46:50.890Z,35.20
2019-05-14T12:48:23.025Z,35.20
2019-05-14T12:49:55.298Z,35.00
2019-05-14T12:51:28.599Z,34.50
2019-05-14T12:53:00.948Z,36.30
2019-05-14T12:54:33.227Z,36.00
2019-05-14T12:56:05.376Z,36.50
2019-05-14T12:57:39.474Z,37.60
2019-05-14T12:59:11.545Z,36.60
2019-05-14T13:00:43.817Z,36.50
2019-05-14T13:02:18.495Z,35.30
2019-05-14T13:03:50.324Z,37.00
2019-05-14T13:05:22.458Z,36.20
2019-05-14T13:06:54.593Z,36.70
2019-05-14T13:08:26.919Z,35.70
2019-05-14T13:09:59.051Z,36.50
2019-05-14T13:11:31.283Z,36.80
2019-05-14T13:13:03.567Z,36.80
2019-05-14T13:14:35.676Z,36.90
2019-05-14T13:16:07.949Z,36.20
2019-05-14T13:17:40.447Z,36.80
2019-05-14T13:19:12.680Z,37.10
2019-05-14T13:20:44.835Z,37.00
2019-05-14T13:22:20.710Z,35.50
2019-05-14T13:23:51.062Z,35.60
2019-05-14T13:25:23.280Z,35.50
2019-05-14T13:26:55.533Z,35.40
2019-05-14T13:28:29.073Z,36.40
2019-05-14T13:30:01.666Z,37.00
2019-05-14T13:31:33.823Z,37.70
2019-05-14T13:33:08.635Z,37.00
2019-05-14T13:34:40.188Z,35.70
2019-05-14T13:36:14.008Z,36.20
2019-05-14T13:37:48.836Z,36.30
2019-05-14T13:39:20.442Z,35.60
2019-05-14T13:40:52.679Z,36.40
2019-05-14T13:42:24.895Z,36.60
2019-05-14T13:43:58.709Z,34.90
2019-05-14T13:45:31.200Z,35.90
2019-05-14T13:47:03.421Z,36.70
2019-05-14T13:48:39.605Z,35.80
2019-05-14T13:50:09.672Z,36.30
2019-05-14T13:51:41.915Z,36.80
2019-05-14T13:53:14.150Z,36.60
2019-05-14T13:54:46.423Z,36.20
2019-05-14T13:56:19.047Z,36.10
2019-05-14T13:57:51.423Z,35.20
2019-05-14T13:59:23.645Z,34.80
2019-05-14T14:00:58.844Z,34.40
2019-05-14T14:02:31.370Z,35.90
2019-05-14T14:04:11.118Z,36.10
2019-05-14T14:05:39.249Z,37.00
2019-05-14T14:07:11.716Z,37.20
2019-05-14T14:08:43.835Z,36.60
2019-05-14T14:10:16.128Z,36.70
2019-05-14T14:11:48.449Z,35.70
2019-05-14T14:13:20.680Z,36.60
2019-05-14T14:14:52.990Z,38.20
2019-05-14T14:16:25.270Z,36.60
2019-05-14T14:18:00.277Z,36.70
2019-05-14T14:19:31.608Z,37.00
2019-05-14T14:21:03.754Z,37.30
2019-05-14T14:22:39.473Z,36.50
2019-05-14T14:24:10.063Z,37.00
2019-05-14T14:25:42.186Z,35.70
2019-05-14T14:27:14.318Z,36.20
2019-05-14T14:28:49.456Z,36.70
2019-05-14T14:30:22.164Z,36.60
2019-05-14T14:31:54.422Z,36.30
2019-05-14T14:33:28.893Z,37.00
2019-05-14T14:35:01.154Z,37.40
2019-05-14T14:36:33.245Z,37.20
2019-05-14T14:38:05.532Z,37.10
2019-05-14T14:39:37.797Z,35.90
2019-05-14T14:41:10.455Z,36.40
2019-05-14T14:42:43.012Z,36.10
2019-05-14T14:44:15.326Z,36.20
2019-05-14T14:45:50.501Z,37.00
2019-05-14T14:47:21.445Z,36.20
2019-05-14T14:48:57.594Z,35.50
2019-05-14T14:50:28.910Z,36.60
2019-05-14T14:52:01.407Z,35.90
2019-05-14T14:53:49.510Z,36.40
2019-05-14T14:55:08.258Z,36.20
2019-05-14T14:56:40.339Z,35.80
2019-05-14T14:58:12.509Z,35.60
2019-05-14T14:59:44.615Z,35.20
2019-05-14T15:01:19.319Z,35.90
2019-05-14T15:02:50.799Z,35.60
2019-05-14T15:04:22.992Z,35.90
2019-05-14T15:05:55.194Z,36.10
2019-05-14T15:07:29.740Z,35.20
2019-05-14T15:09:01.457Z,34.70
2019-05-14T15:10:33.574Z,35.80
2019-05-14T15:12:05.846Z,36.40
2019-05-14T15:13:38.994Z,36.70
2019-05-14T15:15:11.593Z,37.00
2019-05-14T15:16:43.694Z,36.60
2019-05-14T15:18:18.611Z,36.70
2019-05-14T15:19:50.277Z,36.80
2019-05-14T15:21:22.588Z,37.00
2019-05-14T15:22:54.893Z,37.50
2019-05-14T15:24:26.993Z,37.90
2019-05-14T15:25:59.394Z,37.80
2019-05-14T15:27:31.521Z,38.50
2019-05-14T15:29:03.820Z,38.10
2019-05-14T15:30:35.956Z,37.60
2019-05-14T15:32:09.917Z,37.10
2019-05-14T15:33:42.222Z,36.40
2019-05-14T15:35:14.643Z,35.70
2019-05-14T15:36:49.309Z,36.20
2019-05-14T15:38:20.952Z,36.20
2019-05-14T15:39:53.231Z,35.60
2019-05-14T15:41:25.525Z,35.90
2019-05-14T15:43:01.888Z,34.40
2019-05-14T15:44:47.528Z,35.40
2019-05-14T15:46:08.975Z,35.50
2019-05-14T15:47:41.379Z,35.10
2019-05-14T15:49:13.664Z,34.80
2019-05-14T15:50:45.913Z,34.90
2019-05-14T15:52:19.201Z,35.10
2019-05-14T15:54:07.226Z,35.50
2019-05-14T15:55:26.255Z,35.90
2019-05-14T15:56:58.803Z,35.10
2019-05-14T15:58:31.051Z,35.80
2019-05-14T16:00:04.178Z,35.90
2019-05-14T16:01:39.574Z,35.60
2019-05-14T16:03:10.813Z,35.10
2019-05-14T16:04:43.071Z,36.00
2019-05-14T16:06:15.315Z,35.80
2019-05-14T16:07:49.380Z,36.20
2019-05-14T16:09:21.600Z,36.40
2019-05-14T16:10:53.749Z,36.20
2019-05-14T16:12:28.676Z,35.60
2019-05-14T16:14:00.066Z,35.10
2019-05-14T16:15:32.211Z,35.00
2019-05-14T16:17:04.508Z,36.30
2019-05-14T16:18:38.555Z,35.90
2019-05-14T16:20:10.857Z,36.20
2019-05-14T16:21:43.092Z,36.30
2019-05-14T16:23:18.631Z,36.10
2019-05-14T16:24:56.193Z,36.50
2019-05-14T16:26:24.656Z,35.90
2019-05-14T16:27:59.355Z,35.70
2019-05-14T16:29:41.370Z,36.20
2019-05-14T16:31:05.109Z,36.80
2019-05-14T16:32:39.393Z,36.80
2019-05-14T16:34:12.896Z,36.70
2019-05-14T16:35:48.556Z,37.20
2019-05-14T16:37:20.876Z,36.20
2019-05-14T16:38:53.099Z,37.20
2019-05-14T16:40:25.361Z,37.40
2019-05-14T16:41:58.233Z,36.70
2019-05-14T16:43:32.577Z,36.60
2019-05-14T16:45:05.163Z,36.70
2019-05-14T16:46:38.422Z,36.70
2019-05-14T16:48:11.237Z,37.30
2019-05-14T16:49:43.779Z,36.80
2019-05-14T16:51:19.261Z,37.80
2019-05-14T16:52:51.171Z,38.10
2019-05-14T16:54:23.282Z,38.40
2019-05-14T16:55:55.589Z,38.40
2019-05-14T16:57:29.347Z,38.10
2019-05-14T16:59:01.821Z,38.30
2019-05-14T17:00:34.844Z,38.30
2019-05-14T17:02:09.133Z,38.80
2019-05-14T17:03:41.600Z,38.50
2019-05-14T17:05:14.052Z,38.80
2019-05-14T17:06:46.213Z,39.20
2019-05-14T17:08:19.193Z,39.30
2019-05-14T17:09:51.705Z,38.90
2019-05-14T17:11:23.811Z,39.00
2019-05-14T17:12:57.476Z,39.40
2019-05-14T17:14:30.235Z,39.00
2019-05-14T17:16:02.383Z,38.80
2019-05-14T17:17:34.665Z,39.30
2019-05-14T17:19:09.133Z,39.80
2019-05-14T17:20:40.791Z,40.10
2019-05-14T17:22:25.406Z,40.00
2019-05-14T17:23:48.843Z,40.00
2019-05-14T17:25:27.287Z,40.10
2019-05-14T17:26:55.512Z,40.20
2019-05-14T17:28:29.115Z,40.60
2019-05-14T17:30:01.509Z,40.20
2019-05-14T17:31:35.432Z,40.40
2019-05-14T17:33:09.741Z,40.80
2019-05-14T17:34:41.979Z,40.40
2019-05-14T17:36:14.288Z,40.40
2019-05-14T17:37:48.327Z,40.00
2019-05-14T17:39:20.763Z,40.20
2019-05-14T17:40:53.079Z,40.50
2019-05-14T17:42:25.161Z,40.30
2019-05-14T17:43:58.579Z,40.40
2019-05-14T17:45:30.913Z,40.60
2019-05-14T17:47:03.285Z,40.30
2019-05-14T17:48:35.373Z,40.20
2019-05-14T17:50:07.759Z,39.90
2019-05-14T17:51:39.870Z,40.00
2019-05-14T17:53:12.156Z,41.00
2019-05-14T17:54:44.440Z,40.60
2019-05-14T17:56:18.866Z,39.70
2019-05-14T17:57:58.026Z,39.80
2019-05-14T17:59:24.792Z,40.20
2019-05-14T18:00:58.139Z,40.50
2019-05-14T18:02:30.531Z,40.50
2019-05-14T18:04:02.886Z,40.70
2019-05-14T18:05:34.997Z,40.60
2019-05-14T18:07:08.506Z,40.30
2019-05-14T18:08:41.067Z,40.30
2019-05-14T18:10:13.363Z,40.60
2019-05-14T18:11:45.462Z,40.80
2019-05-14T18:13:18.243Z,40.90
2019-05-14T18:14:50.576Z,41.10
2019-05-14T18:16:22.707Z,41.60
2019-05-14T18:17:54.843Z,41.20
2019-05-14T18:19:28.960Z,41.20
2019-05-14T18:21:01.345Z,41.60
2019-05-14T18:22:33.575Z,41.70
2019-05-14T18:24:06.846Z,42.00
2019-05-14T18:25:39.198Z,41.50
2019-05-14T18:27:11.480Z,42.10
2019-05-14T18:28:43.608Z,42.60
2019-05-14T18:30:18.133Z,42.40
2019-05-14T18:31:53.817Z,42.40
2019-05-14T18:33:24.251Z,42.10
2019-05-14T18:34:58.220Z,42.70
2019-05-14T18:36:30.513Z,42.50
2019-05-14T18:38:02.613Z,42.50
2019-05-14T18:39:34.772Z,42.60
2019-05-14T18:41:08.531Z,42.90
2019-05-14T18:42:40.994Z,42.90
2019-05-14T18:44:13.290Z,42.90
2019-05-14T18:45:45.420Z,43.10
2019-05-14T18:47:20.081Z,42.80
2019-05-14T18:48:51.816Z,42.50
2019-05-14T18:50:23.932Z,41.90
2019-05-14T18:51:56.051Z,42.40
2019-05-14T18:53:28.257Z,42.50
2019-05-14T18:55:00.504Z,42.70
2019-05-14T18:56:32.648Z,43.00
2019-05-14T18:58:04.859Z,42.80
2019-05-14T18:59:39.073Z,43.00
2019-05-14T19:01:11.313Z,43.60
2019-05-14T19:02:43.536Z,43.40
2019-05-14T19:04:18.392Z,43.60
2019-05-14T19:05:50.047Z,43.50
2019-05-14T19:07:22.188Z,43.60
2019-05-14T19:08:54.308Z,43.90
2019-05-14T19:10:28.054Z,44.00
2019-05-14T19:12:00.475Z,43.90
2019-05-14T19:13:32.599Z,43.90
2019-05-14T19:15:05.204Z,44.20
2019-05-14T19:16:38.354Z,44.70
2019-05-14T19:18:10.686Z,44.90
2019-05-14T19:19:42.804Z,45.30
2019-05-14T19:21:14.933Z,45.40
2019-05-14T19:22:49.061Z,45.80
2019-05-14T19:24:21.209Z,46.00
2019-05-14T19:25:53.345Z,45.90
2019-05-14T19:27:25.619Z,46.40
2019-05-14T19:28:58.219Z,46.50
2019-05-14T19:30:30.833Z,46.60
2019-05-14T19:32:03.081Z,46.80
2019-05-14T19:33:35.243Z,46.80
2019-05-14T19:35:08.788Z,46.90
2019-05-14T19:36:41.074Z,47.10
2019-05-14T19:38:13.205Z,47.40
2019-05-14T19:39:45.340Z,47.60
2019-05-14T19:41:20.910Z,47.90
2019-05-14T19:42:51.814Z,48.30
2019-05-14T19:44:24.103Z,48.60
2019-05-14T19:45:56.273Z,48.50
2019-05-14T19:47:28.521Z,49.10
2019-05-14T19:49:00.767Z,48.90
2019-05-14T19:50:33.032Z,49.10
2019-05-14T19:52:05.316Z,49.20
2019-05-14T19:53:39.228Z,49.40
2019-05-14T19:55:11.834Z,49.30